Byron Hills, Illinois
Current Conditions -  °F | °C
As of 6:52 AM on Friday 24 Oct 2014 (Local Time) from KDVN Reporting Station
Moderate Fog Moderate Fog  
Wind Chill: 50°   Ceiling: 200
Heat Index: 50°   Visibility: 0.25mi
Dew Point: 49°   Wind: 6mph
Humidity: 96%   Direction: 130°SE
Pressure: 30.05"   Gusts: NA
Location:  41.595°N, 90.2974°W
Report Text: KDVN 241152Z AUTO 13005KT 1/4SM FG VV002 10/09 A3005 RMK AO2 SLP177 T01000094 10100 20044 58002 TSNO
Loading
Personal Weather Stations






























Interactive Weather Map
Tropical Storm Tracking
New forecast layout! Learn more

10-Day Weather Forecast

Advertisements
Track Severe Weather on mobile